createdAt,value
2022-12-05T00:01:57.271Z,7.10
2022-12-05T00:04:26.885Z,7.08
2022-12-05T00:06:58.599Z,7.19
2022-12-05T00:09:27.787Z,7.23
2022-12-05T00:11:55.023Z,7.16
2022-12-05T00:14:22.023Z,7.29
2022-12-05T00:16:49.017Z,7.26
2022-12-05T00:19:18.937Z,7.37
2022-12-05T00:21:48.810Z,7.12
2022-12-05T00:24:17.167Z,7.25
2022-12-05T00:26:44.584Z,7.11
2022-12-05T00:29:12.327Z,6.89
2022-12-05T00:31:39.476Z,7.09
2022-12-05T00:34:06.812Z,7.00
2022-12-05T00:36:36.911Z,7.10
2022-12-05T00:39:11.226Z,7.11
2022-12-05T00:41:40.594Z,7.20
2022-12-05T00:44:08.381Z,7.27
2022-12-05T00:46:38.296Z,7.26
2022-12-05T00:49:10.662Z,7.22
2022-12-05T00:51:44.221Z,7.38
2022-12-05T00:54:14.820Z,7.25
2022-12-05T00:56:44.397Z,7.09
2022-12-05T00:59:21.109Z,7.23
2022-12-05T01:01:52.474Z,7.30
2022-12-05T01:04:28.020Z,7.00
2022-12-05T01:06:59.224Z,7.06
2022-12-05T01:09:29.235Z,7.04
2022-12-05T01:11:56.584Z,7.03
2022-12-05T01:14:25.765Z,7.10
2022-12-05T01:16:56.414Z,7.03
2022-12-05T01:19:33.120Z,6.90
2022-12-05T01:22:00.957Z,6.89
2022-12-05T01:24:29.978Z,7.07
2022-12-05T01:26:57.343Z,7.04
2022-12-05T01:29:26.225Z,7.02
2022-12-05T01:31:54.284Z,6.98
2022-12-05T01:34:22.405Z,6.83
2022-12-05T01:36:51.600Z,6.76
2022-12-05T01:39:18.602Z,6.61
2022-12-05T01:41:49.374Z,6.63
2022-12-05T01:44:16.219Z,6.84
2022-12-05T01:46:53.750Z,6.84
2022-12-05T01:49:34.192Z,6.80
2022-12-05T01:52:07.856Z,6.97
2022-12-05T01:54:38.314Z,6.91
2022-12-05T01:57:11.726Z,7.08
2022-12-05T01:59:57.316Z,7.18
2022-12-05T02:02:24.949Z,7.04
2022-12-05T02:05:10.645Z,6.94
2022-12-05T02:07:41.116Z,7.04
2022-12-05T02:10:09.085Z,6.85
2022-12-05T02:12:38.941Z,6.89
2022-12-05T02:15:21.870Z,6.96
2022-12-05T02:18:54.651Z,7.01
2022-12-05T02:21:33.726Z,7.04
2022-12-05T02:24:57.293Z,7.10
2022-12-05T02:28:08.350Z,6.88
2022-12-05T02:31:16.742Z,6.69
2022-12-05T02:33:50.988Z,7.09
2022-12-05T02:36:40.923Z,7.03
2022-12-05T02:39:47.740Z,7.15
2022-12-05T02:42:41.283Z,6.99
2022-12-05T02:45:13.282Z,6.84
2022-12-05T02:47:48.652Z,6.88
2022-12-05T02:50:23.056Z,6.94
2022-12-05T02:52:52.534Z,7.11
2022-12-05T02:55:26.562Z,6.93
2022-12-05T02:57:59.121Z,6.94
2022-12-05T03:00:26.065Z,7.00
2022-12-05T03:02:59.122Z,7.13
2022-12-05T03:05:39.040Z,7.17
2022-12-05T03:08:15.590Z,7.06
2022-12-05T03:10:45.158Z,6.98
2022-12-05T03:13:26.007Z,6.95
2022-12-05T03:16:17.300Z,6.76
2022-12-05T03:19:16.395Z,6.74
2022-12-05T03:22:02.383Z,6.69
2022-12-05T03:24:30.780Z,6.87
2022-12-05T03:27:30.828Z,6.77
2022-12-05T03:30:04.902Z,6.84
2022-12-05T03:32:34.393Z,6.50
2022-12-05T03:35:17.322Z,6.61
2022-12-05T03:38:37.924Z,6.54
2022-12-05T03:41:40.909Z,6.42
2022-12-05T03:44:18.558Z,6.43
2022-12-05T03:46:54.698Z,6.50
2022-12-05T03:49:35.067Z,6.27
2022-12-05T03:53:03.689Z,6.32
2022-12-05T03:55:31.018Z,6.54
2022-12-05T03:58:18.317Z,6.59
2022-12-05T04:00:51.808Z,6.94
2022-12-05T04:03:27.480Z,6.83
2022-12-05T04:06:01.722Z,6.95
2022-12-05T04:08:48.524Z,6.90
2022-12-05T04:11:22.955Z,6.92
2022-12-05T04:14:01.343Z,6.64
2022-12-05T04:17:02.398Z,6.78
2022-12-05T04:20:01.430Z,6.84
2022-12-05T04:22:28.824Z,6.76
2022-12-05T04:25:19.132Z,6.62
2022-12-05T04:28:35.931Z,6.68
2022-12-05T04:31:16.344Z,6.86
2022-12-05T04:34:18.065Z,6.82
2022-12-05T04:36:56.921Z,6.86
2022-12-05T04:39:48.615Z,6.66
2022-12-05T04:42:23.044Z,6.83
2022-12-05T04:45:13.151Z,6.94
2022-12-05T04:47:47.507Z,6.98
2022-12-05T04:50:21.043Z,6.69
2022-12-05T04:52:53.607Z,6.65
2022-12-05T04:55:28.183Z,6.94
2022-12-05T04:58:19.907Z,6.79
2022-12-05T05:01:23.113Z,6.70
2022-12-05T05:04:13.039Z,6.50
2022-12-05T05:06:44.602Z,6.84
2022-12-05T05:09:11.942Z,6.73
2022-12-05T05:11:39.206Z,6.60
2022-12-05T05:14:06.393Z,6.77
2022-12-05T05:16:45.537Z,6.71
2022-12-05T05:19:13.150Z,6.78
2022-12-05T05:21:42.491Z,6.91
2022-12-05T05:24:14.004Z,6.54
2022-12-05T05:26:46.088Z,6.53
2022-12-05T05:29:14.353Z,6.59
2022-12-05T05:31:45.376Z,6.69
2022-12-05T05:34:15.850Z,6.52
2022-12-05T05:36:44.013Z,6.63
2022-12-05T05:39:15.454Z,6.74
2022-12-05T05:41:45.289Z,6.72
2022-12-05T05:44:12.508Z,6.52
2022-12-05T05:46:39.713Z,6.49
2022-12-05T05:49:07.077Z,6.42
2022-12-05T05:51:36.890Z,6.28
2022-12-05T05:54:06.643Z,6.27
2022-12-05T05:56:40.963Z,6.47
2022-12-05T05:59:08.014Z,6.45
2022-12-05T06:01:35.072Z,6.50
2022-12-05T06:04:05.250Z,6.68
2022-12-05T06:06:37.084Z,6.77
2022-12-05T06:09:10.204Z,6.89
2022-12-05T06:11:39.338Z,6.91
2022-12-05T06:14:06.211Z,6.96
2022-12-05T06:16:35.439Z,7.01
2022-12-05T06:19:05.360Z,7.02
2022-12-05T06:21:34.587Z,6.53
2022-12-05T06:24:01.594Z,6.84
2022-12-05T06:26:33.036Z,6.35
2022-12-05T06:29:02.147Z,6.04
2022-12-05T06:31:31.608Z,6.14
2022-12-05T06:34:04.785Z,5.88
2022-12-05T06:36:34.783Z,5.99
2022-12-05T06:39:03.971Z,6.24
2022-12-05T06:41:36.183Z,6.41
2022-12-05T06:44:05.615Z,6.56
2022-12-05T06:46:32.463Z,6.17
2022-12-05T06:48:59.879Z,6.37
2022-12-05T06:51:31.426Z,6.37
2022-12-05T06:53:58.462Z,6.37
2022-12-05T06:56:25.422Z,6.46
2022-12-05T06:58:57.212Z,6.40
2022-12-05T07:01:40.820Z,6.28
2022-12-05T07:04:13.026Z,6.47
2022-12-05T07:06:50.212Z,6.41
2022-12-05T07:09:44.638Z,6.46
2022-12-05T07:12:14.832Z,6.52
2022-12-05T07:14:48.177Z,6.60
2022-12-05T07:17:19.287Z,6.65
2022-12-05T07:19:49.597Z,6.68
2022-12-05T07:22:18.390Z,6.42
2022-12-05T07:24:46.235Z,6.42
2022-12-05T07:27:25.049Z,6.47
2022-12-05T07:29:54.119Z,6.29
2022-12-05T07:32:23.063Z,6.43
2022-12-05T07:34:55.568Z,6.41
2022-12-05T07:37:25.315Z,6.47
2022-12-05T07:39:53.257Z,6.38
2022-12-05T07:42:20.241Z,6.52
2022-12-05T07:44:47.205Z,6.47
2022-12-05T07:47:16.462Z,6.54
2022-12-05T07:49:45.618Z,6.58
2022-12-05T07:52:15.233Z,6.60
2022-12-05T07:54:42.165Z,6.46
2022-12-05T07:57:11.144Z,6.26
2022-12-05T07:59:38.320Z,6.37
2022-12-05T08:02:06.533Z,6.31
2022-12-05T08:04:33.549Z,6.30
2022-12-05T08:07:00.503Z,6.29
2022-12-05T08:09:27.616Z,6.21
2022-12-05T08:11:54.575Z,6.18
2022-12-05T08:14:23.718Z,6.21
2022-12-05T08:16:50.714Z,6.29
2022-12-05T08:19:22.599Z,6.32
2022-12-05T08:21:49.622Z,6.41
2022-12-05T08:24:19.166Z,5.97
2022-12-05T08:26:46.194Z,6.00
2022-12-05T08:29:16.054Z,5.85
2022-12-05T08:31:49.536Z,6.13
2022-12-05T08:34:25.546Z,6.07
2022-12-05T08:36:52.365Z,6.10
2022-12-05T08:39:19.912Z,6.36
2022-12-05T08:41:48.019Z,6.26
2022-12-05T08:44:18.680Z,6.48
2022-12-05T08:46:49.590Z,6.31
2022-12-05T08:49:19.588Z,6.35
2022-12-05T08:51:46.854Z,6.18
2022-12-05T08:54:16.532Z,6.08
2022-12-05T08:56:43.607Z,6.34
2022-12-05T08:59:10.619Z,6.31
2022-12-05T09:01:39.399Z,6.36
2022-12-05T09:04:07.697Z,6.55
2022-12-05T09:06:39.161Z,6.68
2022-12-05T09:09:09.184Z,6.48
2022-12-05T09:11:46.402Z,6.34
2022-12-05T09:14:14.265Z,6.32
2022-12-05T09:16:43.928Z,6.44
2022-12-05T09:19:21.012Z,6.59
2022-12-05T09:21:53.216Z,6.69
2022-12-05T09:24:25.099Z,6.88
2022-12-05T09:26:52.109Z,6.98
2022-12-05T09:29:19.327Z,7.11
2022-12-05T09:31:49.954Z,6.77
2022-12-05T09:34:21.671Z,6.59
2022-12-05T09:36:55.597Z,6.65
2022-12-05T09:39:25.658Z,6.88
2022-12-05T09:42:20.167Z,6.70
2022-12-05T09:45:04.049Z,6.77
2022-12-05T09:48:01.548Z,6.96
2022-12-05T09:50:46.696Z,7.15
2022-12-05T09:53:43.593Z,7.02
2022-12-05T09:56:19.378Z,7.20
2022-12-05T09:58:53.574Z,7.12
2022-12-05T10:01:56.144Z,7.01
2022-12-05T10:05:00.737Z,6.83
2022-12-05T10:07:39.315Z,6.92
2022-12-05T10:10:40.609Z,7.08
2022-12-05T10:13:22.165Z,7.21
2022-12-05T10:16:04.148Z,7.17
2022-12-05T10:18:43.248Z,7.16
2022-12-05T10:21:20.589Z,7.21
2022-12-05T10:24:13.297Z,7.08
2022-12-05T10:26:46.980Z,7.13
2022-12-05T10:29:40.410Z,7.07
2022-12-05T10:32:18.962Z,6.82
2022-12-05T10:34:46.649Z,6.96
2022-12-05T10:37:22.692Z,7.04
2022-12-05T10:39:51.039Z,6.94
2022-12-05T10:42:35.151Z,7.02
2022-12-05T10:45:14.219Z,7.34
2022-12-05T10:47:41.573Z,7.40
2022-12-05T10:50:23.521Z,7.43
2022-12-05T10:52:53.246Z,7.12
2022-12-05T10:55:20.804Z,7.14
2022-12-05T10:58:15.515Z,7.20
2022-12-05T11:00:48.959Z,7.32
2022-12-05T11:03:38.432Z,7.31
2022-12-05T11:06:31.233Z,6.98
2022-12-05T11:09:08.428Z,7.08
2022-12-05T11:11:35.512Z,7.27
2022-12-05T11:14:21.436Z,7.22
2022-12-05T11:16:57.637Z,7.28
2022-12-05T11:19:43.187Z,7.06
2022-12-05T11:22:17.447Z,6.96
2022-12-05T11:24:44.422Z,7.11
2022-12-05T11:27:34.768Z,7.10
2022-12-05T11:30:22.343Z,7.03
2022-12-05T11:32:51.812Z,6.66
2022-12-05T11:35:28.917Z,7.06
2022-12-05T11:38:09.734Z,7.00
2022-12-05T11:41:18.551Z,7.09
2022-12-05T11:44:15.946Z,7.22
2022-12-05T11:47:14.116Z,7.41
2022-12-05T11:50:08.293Z,7.41
2022-12-05T11:52:56.422Z,7.06
2022-12-05T11:55:57.016Z,6.87
2022-12-05T11:58:32.778Z,6.99
2022-12-05T12:01:47.290Z,7.08
2022-12-05T12:04:27.728Z,7.17
2022-12-05T12:07:19.218Z,7.27
2022-12-05T12:10:21.692Z,7.32
2022-12-05T12:13:34.798Z,7.30
2022-12-05T12:16:06.696Z,6.98
2022-12-05T12:18:56.984Z,7.19
2022-12-05T12:21:42.750Z,7.24
2022-12-05T12:24:31.927Z,7.22
2022-12-05T12:27:30.396Z,7.38
2022-12-05T12:30:10.689Z,7.44
2022-12-05T12:33:20.444Z,7.29
2022-12-05T12:35:57.091Z,6.91
2022-12-05T12:38:51.629Z,7.10
2022-12-05T12:41:56.176Z,6.95
2022-12-05T12:45:05.451Z,6.66
2022-12-05T12:48:03.684Z,6.69
2022-12-05T12:50:43.214Z,6.86
2022-12-05T12:53:47.747Z,6.94
2022-12-05T12:57:15.286Z,6.80
2022-12-05T13:00:09.457Z,6.74
2022-12-05T13:03:00.382Z,6.59
2022-12-05T13:05:34.176Z,6.68
2022-12-05T13:08:38.524Z,6.77
2022-12-05T13:11:15.537Z,6.63
2022-12-05T13:13:56.629Z,6.64
2022-12-05T13:16:28.687Z,6.85
2022-12-05T13:18:57.339Z,6.86
2022-12-05T13:21:27.436Z,6.86
2022-12-05T13:24:03.176Z,6.87
2022-12-05T13:26:33.090Z,7.00
2022-12-05T13:29:03.419Z,6.84
2022-12-05T13:31:40.480Z,6.76
2022-12-05T13:34:46.314Z,6.76
2022-12-05T13:37:48.069Z,6.75
2022-12-05T13:40:52.561Z,6.73
2022-12-05T13:43:26.780Z,6.57
2022-12-05T13:46:29.636Z,6.61
2022-12-05T13:49:33.914Z,6.64
2022-12-05T13:52:16.842Z,6.55
2022-12-05T13:55:15.584Z,6.64
2022-12-05T13:57:44.255Z,6.76
2022-12-05T14:00:11.147Z,6.87
2022-12-05T14:02:47.125Z,6.79
2022-12-05T14:05:14.041Z,6.70
2022-12-05T14:07:45.913Z,6.41
2022-12-05T14:10:25.032Z,6.37
2022-12-05T14:13:14.831Z,6.46
2022-12-05T14:15:45.677Z,6.68
2022-12-05T14:18:44.853Z,6.65
2022-12-05T14:21:21.975Z,6.66
2022-12-05T14:24:07.992Z,6.81
2022-12-05T14:26:59.569Z,6.68
2022-12-05T14:29:47.308Z,6.57
2022-12-05T14:32:28.361Z,6.38
2022-12-05T14:35:01.373Z,6.40
2022-12-05T14:37:36.802Z,6.51
2022-12-05T14:40:44.616Z,6.36
2022-12-05T14:43:33.474Z,6.38
2022-12-05T14:46:16.692Z,6.43
2022-12-05T14:48:48.404Z,6.39
2022-12-05T14:51:33.202Z,6.51
2022-12-05T14:54:19.583Z,6.43
2022-12-05T14:57:03.201Z,6.32
2022-12-05T15:00:00.531Z,6.37
2022-12-05T15:02:55.681Z,6.32
2022-12-05T15:05:33.236Z,6.30
2022-12-05T15:08:04.207Z,6.35
2022-12-05T15:10:42.945Z,6.61
2022-12-05T15:13:24.647Z,6.59
2022-12-05T15:16:22.266Z,6.64
2022-12-05T15:19:00.534Z,6.61
2022-12-05T15:21:42.197Z,6.74
2022-12-05T15:24:17.120Z,6.61
2022-12-05T15:26:51.311Z,6.54
2022-12-05T15:29:23.033Z,6.74
2022-12-05T15:31:59.242Z,6.64
2022-12-05T15:34:44.689Z,6.43
2022-12-05T15:37:18.543Z,6.32
2022-12-05T15:40:14.403Z,6.07
2022-12-05T15:42:45.835Z,6.25
2022-12-05T15:45:15.352Z,6.34
2022-12-05T15:47:59.363Z,6.32
2022-12-05T15:50:37.821Z,6.46
2022-12-05T15:53:09.627Z,6.42
2022-12-05T15:55:48.739Z,6.31
2022-12-05T15:58:36.872Z,6.33
2022-12-05T16:01:26.795Z,6.46
2022-12-05T16:04:12.638Z,6.54
2022-12-05T16:07:00.494Z,6.57
2022-12-05T16:09:32.389Z,6.43
2022-12-05T16:12:16.907Z,6.33
2022-12-05T16:14:59.528Z,6.48
2022-12-05T16:17:30.561Z,6.38
2022-12-05T16:20:24.891Z,6.47
2022-12-05T16:22:56.325Z,6.51
2022-12-05T16:25:29.605Z,6.50
2022-12-05T16:28:07.431Z,6.57
2022-12-05T16:30:36.087Z,6.56
2022-12-05T16:33:06.495Z,6.46
2022-12-05T16:35:39.958Z,6.35
2022-12-05T16:38:29.911Z,6.45
2022-12-05T16:40:59.358Z,6.44
2022-12-05T16:43:46.180Z,6.38
2022-12-05T16:46:17.386Z,6.35
2022-12-05T16:48:50.425Z,6.25
2022-12-05T16:51:30.137Z,6.30
2022-12-05T16:53:57.289Z,6.32
2022-12-05T16:56:32.653Z,6.22
2022-12-05T16:59:23.065Z,6.27
2022-12-05T17:01:52.286Z,6.36
2022-12-05T17:04:21.849Z,6.19
2022-12-05T17:06:51.513Z,6.19
2022-12-05T17:09:20.820Z,6.30
2022-12-05T17:11:53.370Z,6.44
2022-12-05T17:14:22.815Z,6.44
2022-12-05T17:16:52.008Z,6.36
2022-12-05T17:19:19.045Z,6.36
2022-12-05T17:21:48.559Z,6.26
2022-12-05T17:24:20.619Z,6.41
2022-12-05T17:26:47.729Z,6.10
2022-12-05T17:29:17.297Z,6.19
2022-12-05T17:31:47.093Z,6.27
2022-12-05T17:34:17.102Z,6.31
2022-12-05T17:36:45.286Z,6.32
2022-12-05T17:39:12.764Z,6.16
2022-12-05T17:41:42.385Z,5.97
2022-12-05T17:44:14.478Z,6.24
2022-12-05T17:46:45.094Z,6.32
2022-12-05T17:49:18.603Z,6.35
2022-12-05T17:52:19.906Z,6.33
2022-12-05T17:54:36.213Z,6.26
2022-12-05T17:57:07.522Z,6.32
2022-12-05T17:59:34.471Z,6.15
2022-12-05T18:02:03.720Z,6.35
2022-12-05T18:04:36.811Z,6.39
2022-12-05T18:07:06.105Z,6.33
2022-12-05T18:09:32.934Z,6.52
2022-12-05T18:11:59.895Z,6.40
2022-12-05T18:14:28.313Z,6.42
2022-12-05T18:16:57.971Z,6.22
2022-12-05T18:19:27.402Z,6.21
2022-12-05T18:21:57.012Z,6.08
2022-12-05T18:24:24.059Z,6.23
2022-12-05T18:26:51.002Z,6.01
2022-12-05T18:29:17.871Z,6.17
2022-12-05T18:31:44.870Z,6.02
2022-12-05T18:34:11.861Z,6.13
2022-12-05T18:36:41.375Z,6.14
2022-12-05T18:39:18.450Z,6.11
2022-12-05T18:41:47.947Z,6.20
2022-12-05T18:44:15.119Z,6.20
2022-12-05T18:46:44.525Z,6.12
2022-12-05T18:49:13.366Z,6.26
2022-12-05T18:51:43.992Z,6.19
2022-12-05T18:54:13.765Z,6.23
2022-12-05T18:56:41.087Z,6.21
2022-12-05T18:59:15.052Z,6.26
2022-12-05T19:01:42.432Z,6.24
2022-12-05T19:04:14.393Z,6.13
2022-12-05T19:06:49.652Z,6.18
2022-12-05T19:09:19.456Z,6.30
2022-12-05T19:11:50.954Z,6.17
2022-12-05T19:14:19.436Z,6.07
2022-12-05T19:16:52.652Z,6.14
2022-12-05T19:19:25.270Z,6.22
2022-12-05T19:21:53.486Z,6.08
2022-12-05T19:24:22.846Z,6.08
2022-12-05T19:26:49.929Z,6.14
2022-12-05T19:29:17.337Z,5.81
2022-12-05T19:31:45.180Z,5.63
2022-12-05T19:34:15.030Z,5.75
2022-12-05T19:36:45.027Z,5.98
2022-12-05T19:39:16.659Z,5.83
2022-12-05T19:41:49.003Z,5.61
2022-12-05T19:44:16.072Z,5.51
2022-12-05T19:46:43.725Z,5.71
2022-12-05T19:49:16.458Z,5.68
2022-12-05T19:51:48.569Z,5.77
2022-12-05T19:54:18.089Z,5.89
2022-12-05T19:56:47.772Z,6.00
2022-12-05T19:59:17.507Z,5.87
2022-12-05T20:01:44.834Z,5.93
2022-12-05T20:04:14.840Z,5.93
2022-12-05T20:06:45.733Z,5.88
2022-12-05T20:09:18.660Z,5.92
2022-12-05T20:11:55.072Z,6.00
2022-12-05T20:14:24.814Z,5.83
2022-12-05T20:16:54.946Z,5.85
2022-12-05T20:19:23.875Z,5.66
2022-12-05T20:21:55.234Z,5.88
2022-12-05T20:24:22.911Z,6.04
2022-12-05T20:26:49.877Z,6.11
2022-12-05T20:29:16.874Z,6.18
2022-12-05T20:31:44.245Z,6.13
2022-12-05T20:34:13.848Z,6.11
2022-12-05T20:36:41.476Z,6.19
2022-12-05T20:39:14.487Z,5.89
2022-12-05T20:41:41.618Z,5.93
2022-12-05T20:44:11.355Z,5.93
2022-12-05T20:46:41.609Z,5.73
2022-12-05T20:49:09.179Z,5.80
2022-12-05T20:51:45.174Z,5.76
2022-12-05T20:54:13.380Z,5.75
2022-12-05T20:56:40.967Z,5.75
2022-12-05T20:59:15.931Z,5.82
2022-12-05T21:01:43.072Z,5.91
2022-12-05T21:04:13.896Z,5.79
2022-12-05T21:06:45.801Z,5.68
2022-12-05T21:09:26.355Z,5.95
2022-12-05T21:11:56.655Z,5.88
2022-12-05T21:14:26.639Z,5.87
2022-12-05T21:16:58.258Z,5.80
2022-12-05T21:19:27.134Z,5.92
2022-12-05T21:21:56.704Z,5.71
2022-12-05T21:24:23.615Z,5.61
2022-12-05T21:26:51.467Z,5.69
2022-12-05T21:29:18.548Z,5.77
2022-12-05T21:31:49.943Z,5.53
2022-12-05T21:34:22.588Z,5.32
2022-12-05T21:36:49.795Z,5.21
2022-12-05T21:39:16.931Z,5.11
2022-12-05T21:41:46.364Z,5.31
2022-12-05T21:44:14.849Z,5.33
2022-12-05T21:46:41.854Z,5.23
2022-12-05T21:49:11.776Z,5.05
2022-12-05T21:51:38.617Z,5.00
2022-12-05T21:54:05.573Z,4.94
2022-12-05T21:56:34.904Z,5.09
2022-12-05T21:59:04.195Z,5.30
2022-12-05T22:01:31.077Z,5.18
2022-12-05T22:04:01.193Z,5.28
2022-12-05T22:06:33.340Z,5.39
2022-12-05T22:09:04.770Z,5.34
2022-12-05T22:11:31.718Z,5.28
2022-12-05T22:13:58.566Z,5.35
2022-12-05T22:16:30.810Z,5.23
2022-12-05T22:18:59.150Z,5.27
2022-12-05T22:21:25.991Z,5.42
2022-12-05T22:23:52.891Z,5.47
2022-12-05T22:26:28.315Z,5.27
2022-12-05T22:29:01.395Z,5.34
2022-12-05T22:31:30.388Z,5.29
2022-12-05T22:33:59.689Z,4.89
2022-12-05T22:36:26.573Z,4.95
2022-12-05T22:38:53.396Z,5.11
2022-12-05T22:41:23.888Z,5.15
2022-12-05T22:43:59.023Z,5.08
2022-12-05T22:46:29.259Z,5.23
2022-12-05T22:49:02.553Z,5.46
2022-12-05T22:51:29.634Z,5.26
2022-12-05T22:53:59.689Z,5.37
2022-12-05T22:56:29.345Z,5.38
2022-12-05T22:58:58.772Z,5.14
2022-12-05T23:01:34.005Z,5.08
2022-12-05T23:04:15.008Z,5.04
2022-12-05T23:06:41.882Z,5.18
2022-12-05T23:09:10.962Z,5.31
2022-12-05T23:11:38.217Z,5.11
2022-12-05T23:14:06.898Z,4.96
2022-12-05T23:16:36.397Z,5.20
2022-12-05T23:19:08.956Z,5.47
2022-12-05T23:21:40.247Z,5.34
2022-12-05T23:24:10.844Z,5.39
2022-12-05T23:26:44.732Z,5.45
2022-12-05T23:29:13.342Z,5.28
2022-12-05T23:31:43.956Z,5.07
2022-12-05T23:34:14.080Z,5.02
2022-12-05T23:36:43.428Z,5.04
2022-12-05T23:39:10.537Z,5.15
2022-12-05T23:41:37.450Z,4.98
2022-12-05T23:44:04.760Z,5.08
2022-12-05T23:46:31.693Z,5.08
2022-12-05T23:48:59.118Z,5.17
2022-12-05T23:51:30.789Z,5.11
2022-12-05T23:54:00.851Z,5.09
2022-12-05T23:56:33.639Z,5.13
2022-12-05T23:59:05.130Z,5.02
